Time;durP1;ratioP1;P1;durP2;ratioP2;P2;SDS_P1;SDS_P2;PMS_P1;PMS_P2;Temp;Humidity;BMP_temperature;BMP_pressure;BME280_temperature;BME280_humidity;BME280_pressure;Samples;Min_cycle;Max_cycle;Signal;HPM_P1;HPM_P2
2022/07/23 00:01:55;;;;;;;12.27;9.13;;;18.40;99.90;;;;;;4424555;28;658387;-63
2022/07/23 00:04:42;;;;;;;14.10;9.77;;;18.40;99.90;;;;;;4418990;28;658138;-63
2022/07/23 00:07:29;;;;;;;11.37;9.27;;;18.40;99.90;;;;;;4444035;28;657470;-62
2022/07/23 00:10:16;;;;;;;12.07;10.00;;;18.40;99.90;;;;;;4424933;28;657453;-62
2022/07/23 00:13:03;;;;;;;13.47;9.20;;;18.40;99.90;;;;;;4441243;28;659846;-62
2022/07/23 00:15:50;;;;;;;15.27;9.80;;;18.40;99.90;;;;;;4422639;28;658331;-63
2022/07/23 00:18:39;;;;;;;13.70;10.00;;;18.30;99.90;;;;;;4443155;28;658440;-63
2022/07/23 00:21:26;;;;;;;15.40;10.83;;;18.20;99.90;;;;;;4400236;28;658897;-62
2022/07/23 00:24:13;;;;;;;13.87;10.33;;;18.10;99.90;;;;;;4442221;28;658739;-63
2022/07/23 00:27:00;;;;;;;14.93;10.60;;;18.10;99.90;;;;;;4422745;28;658685;-63
2022/07/23 00:29:47;;;;;;;15.13;9.77;;;18.00;99.90;;;;;;4426561;28;657812;-63
2022/07/23 00:32:46;;;;;;;18.47;10.73;;;18.00;99.90;;;;;;4420645;28;657864;-62
2022/07/23 00:35:35;;;;;;;13.57;9.70;;;18.00;99.90;;;;;;4416897;28;659391;-62
2022/07/23 00:38:22;;;;;;;15.07;10.07;;;18.10;99.90;;;;;;4416997;28;657780;-64
2022/07/23 00:41:09;;;;;;;16.23;10.67;;;18.00;99.90;;;;;;4422267;28;659345;-62
2022/07/23 00:44:11;;;;;;;14.50;10.00;;;17.90;99.90;;;;;;4412466;28;659002;-63
2022/07/23 00:46:59;;;;;;;15.47;10.27;;;18.00;99.90;;;;;;4408367;28;659261;-62
2022/07/23 00:49:46;;;;;;;14.47;9.13;;;18.00;99.90;;;;;;4419572;28;659087;-62
2022/07/23 00:52:35;;;;;;;14.77;10.10;;;18.00;99.90;;;;;;4431554;28;658728;-62
2022/07/23 00:55:22;;;;;;;14.90;10.13;;;17.90;99.90;;;;;;4411772;28;659280;-62
2022/07/23 00:58:09;;;;;;;15.07;10.30;;;17.80;99.90;;;;;;4433873;28;658717;-63
2022/07/23 01:00:56;;;;;;;14.67;9.70;;;17.70;99.90;;;;;;4417217;28;658729;-62
2022/07/23 01:03:43;;;;;;;14.37;10.23;;;17.70;99.90;;;;;;4432411;28;658424;-63
2022/07/23 01:06:31;;;;;;;18.30;10.93;;;17.60;99.90;;;;;;4416390;28;658358;-63
2022/07/23 01:09:19;;;;;;;14.30;10.02;;;17.60;99.90;;;;;;4425244;28;659041;-62
2022/07/23 01:12:07;;;;;;;15.03;9.67;;;17.60;99.90;;;;;;4395664;28;658380;-63
2022/07/23 01:14:55;;;;;;;14.87;9.10;;;17.70;99.90;;;;;;4422485;28;657917;-64
2022/07/23 01:17:42;;;;;;;12.67;9.27;;;17.70;99.90;;;;;;4402740;28;657771;-62
2022/07/23 01:20:29;;;;;;;12.73;9.73;;;17.60;99.90;;;;;;4442862;28;657505;-62
2022/07/23 01:23:17;;;;;;;13.20;9.70;;;17.50;99.90;;;;;;4424223;28;657890;-62
2022/07/23 01:26:05;;;;;;;14.90;9.13;;;17.50;99.90;;;;;;4436272;28;657746;-64
2022/07/23 01:28:52;;;;;;;11.37;9.50;;;17.50;99.90;;;;;;4444264;28;657980;-62
2022/07/23 01:31:39;;;;;;;11.73;8.80;;;17.50;99.90;;;;;;4438258;28;657249;-63
2022/07/23 01:34:26;;;;;;;13.93;9.30;;;17.40;99.90;;;;;;4422806;28;658034;-63
2022/07/23 01:37:14;;;;;;;11.27;8.93;;;17.30;99.90;;;;;;4440460;28;657252;-62
2022/07/23 01:40:02;;;;;;;14.13;9.00;;;17.30;99.90;;;;;;4419564;28;657264;-63
2022/07/23 01:42:49;;;;;;;14.10;9.30;;;17.30;99.90;;;;;;4432156;28;658234;-64
2022/07/23 01:45:36;;;;;;;14.17;9.10;;;17.30;99.90;;;;;;4402151;28;657657;-63
2022/07/23 01:48:23;;;;;;;13.20;8.80;;;17.20;99.90;;;;;;4427221;28;658693;-64
2022/07/23 01:51:10;;;;;;;18.50;9.87;;;17.20;99.90;;;;;;4419945;28;657964;-63
2022/07/23 01:53:58;;;;;;;12.13;9.47;;;17.10;99.90;;;;;;4430825;28;658714;-62
2022/07/23 01:56:46;;;;;;;11.97;8.90;;;17.10;99.90;;;;;;4432261;28;658296;-64
2022/07/23 01:59:33;;;;;;;15.03;8.57;;;17.10;99.90;;;;;;4439864;28;658003;-62
2022/07/23 02:02:21;;;;;;;11.27;8.70;;;17.00;99.90;;;;;;4404335;28;657803;-62
2022/07/23 02:05:08;;;;;;;16.10;9.53;;;17.10;99.90;;;;;;4441566;28;658051;-62
2022/07/23 02:07:55;;;;;;;12.90;9.00;;;17.10;99.90;;;;;;4407369;28;657620;-63
2022/07/23 02:10:43;;;;;;;14.47;8.73;;;17.00;99.90;;;;;;4429901;28;659214;-63
2022/07/23 02:13:31;;;;;;;11.60;8.37;;;17.00;99.90;;;;;;4428073;28;657803;-64
2022/07/23 02:16:19;;;;;;;10.73;8.57;;;16.90;99.90;;;;;;4443407;28;657882;-62
2022/07/23 02:19:06;;;;;;;12.27;8.73;;;16.90;99.90;;;;;;4418010;28;657891;-63
2022/07/23 02:21:54;;;;;;;14.30;8.23;;;16.90;99.90;;;;;;4438917;28;657731;-62
2022/07/23 02:24:41;;;;;;;12.23;8.70;;;16.90;99.90;;;;;;4420991;28;657623;-63
2022/07/23 02:27:28;;;;;;;13.40;8.73;;;16.90;99.90;;;;;;4435177;28;657828;-62
2022/07/23 02:30:17;;;;;;;12.63;8.43;;;16.80;99.90;;;;;;4417538;28;657895;-62
2022/07/23 02:33:04;;;;;;;11.77;8.90;;;16.80;99.90;;;;;;4440054;28;657284;-64
2022/07/23 02:35:51;;;;;;;10.67;8.87;;;16.90;99.90;;;;;;4405592;28;657831;-63
2022/07/23 02:38:38;;;;;;;13.00;9.00;;;16.80;99.90;;;;;;4427716;28;658574;-62
2022/07/23 02:41:25;;;;;;;13.23;9.07;;;16.80;99.90;;;;;;4420944;28;657510;-63
2022/07/23 02:44:13;;;;;;;11.13;8.70;;;16.80;99.90;;;;;;4441092;28;658082;-62
2022/07/23 02:47:01;;;;;;;10.93;8.43;;;16.80;99.90;;;;;;4419314;28;657530;-64
2022/07/23 02:49:49;;;;;;;14.10;8.57;;;16.80;99.90;;;;;;4422381;28;658736;-64
2022/07/23 02:52:36;;;;;;;13.10;7.70;;;16.80;99.90;;;;;;4419256;28;657525;-63
2022/07/23 02:55:23;;;;;;;13.30;8.35;;;16.70;99.90;;;;;;4423583;28;658453;-63
2022/07/23 02:58:10;;;;;;;11.10;8.07;;;16.60;99.90;;;;;;4406640;28;657625;-63
2022/07/23 03:00:57;;;;;;;15.03;8.60;;;16.70;99.90;;;;;;4444224;28;657158;-62
2022/07/23 03:03:46;;;;;;;11.77;8.10;;;16.70;99.90;;;;;;4440266;28;658247;-63
2022/07/23 03:06:33;;;;;;;12.47;7.73;;;16.70;99.90;;;;;;4417420;28;658671;-63
2022/07/23 03:09:20;;;;;;;11.93;7.63;;;16.70;99.90;;;;;;4420463;28;657298;-64
2022/07/23 03:12:08;;;;;;;9.48;7.40;;;16.70;99.90;;;;;;4433853;28;657463;-63
2022/07/23 03:14:55;;;;;;;9.97;7.90;;;16.70;99.90;;;;;;4418853;28;656830;-64
2022/07/23 03:17:42;;;;;;;18.50;8.65;;;16.70;99.90;;;;;;4446387;28;656635;-62
2022/07/23 03:20:31;;;;;;;11.97;8.20;;;16.70;99.90;;;;;;4440294;28;657597;-63
2022/07/23 03:23:18;;;;;;;10.93;8.23;;;16.60;99.90;;;;;;4413706;28;658864;-63
2022/07/23 03:26:05;;;;;;;14.27;8.30;;;16.40;99.90;;;;;;4408249;28;657665;-64
2022/07/23 03:28:53;;;;;;;16.83;8.23;;;16.40;99.90;;;;;;4436062;28;658120;-63
2022/07/23 03:31:40;;;;;;;14.60;8.57;;;16.50;99.90;;;;;;4419521;28;657472;-63
2022/07/23 03:34:27;;;;;;;16.47;9.80;;;16.50;99.90;;;;;;4446570;28;658562;-63
2022/07/23 03:37:16;;;;;;;11.27;8.50;;;16.50;99.90;;;;;;4441055;28;657597;-62
2022/07/23 03:40:04;;;;;;;14.07;8.67;;;16.50;99.90;;;;;;4418789;28;658563;-65
2022/07/23 03:42:51;;;;;;;12.57;8.27;;;16.60;99.90;;;;;;4423055;28;658183;-63
2022/07/23 03:45:38;;;;;;;13.20;8.37;;;16.70;99.90;;;;;;4431386;28;658124;-63
2022/07/23 03:48:25;;;;;;;10.93;8.40;;;16.80;99.90;;;;;;4423237;28;659407;-64
2022/07/23 03:51:12;;;;;;;9.68;8.02;;;16.80;99.90;;;;;;4428692;28;658728;-63
2022/07/23 03:54:01;;;;;;;15.13;8.67;;;16.90;99.90;;;;;;4439675;28;656939;-63
2022/07/23 03:56:48;;;;;;;10.60;8.67;;;17.00;99.90;;;;;;4420695;28;658493;-64
2022/07/23 03:59:35;;;;;;;11.77;8.97;;;17.10;99.90;;;;;;4427226;28;657726;-64
2022/07/23 04:02:22;;;;;;;16.33;9.83;;;17.10;99.90;;;;;;4428828;28;658282;-63
2022/07/23 04:05:10;;;;;;;11.43;9.20;;;17.30;99.90;;;;;;4439867;28;657437;-65
2022/07/23 04:07:57;;;;;;;11.30;8.37;;;17.40;99.90;;;;;;4445580;28;657551;-63
2022/07/23 04:10:46;;;;;;;15.97;8.97;;;17.50;99.90;;;;;;4424824;28;658174;-63
2022/07/23 04:13:33;;;;;;;12.50;8.53;;;17.50;99.90;;;;;;4400659;28;658844;-63
2022/07/23 04:16:20;;;;;;;17.63;9.50;;;17.50;99.90;;;;;;4416867;28;657563;-64
2022/07/23 04:19:07;;;;;;;11.23;8.83;;;17.70;99.90;;;;;;4435734;28;657285;-63
2022/07/23 04:21:54;;;;;;;11.33;8.70;;;17.90;99.90;;;;;;4432968;28;658003;-63
2022/07/23 04:24:41;;;;;;;16.87;9.40;;;18.10;99.90;;;;;;4401722;28;657552;-63
2022/07/23 04:27:33;;;;;;;15.40;10.20;;;18.20;99.90;;;;;;4437983;28;658383;-64
2022/07/23 04:30:20;;;;;;;14.27;8.90;;;18.50;99.90;;;;;;4400010;28;659145;-64
2022/07/23 04:33:07;;;;;;;11.77;9.17;;;18.60;99.90;;;;;;4441055;28;658766;-63
2022/07/23 04:35:54;;;;;;;14.57;9.00;;;18.70;99.90;;;;;;4443656;28;657954;-63
2022/07/23 04:38:41;;;;;;;14.20;9.17;;;19.00;99.90;;;;;;4401456;28;657520;-63
2022/07/23 04:41:28;;;;;;;12.00;9.00;;;19.30;99.90;;;;;;4437546;28;658281;-63
2022/07/23 04:44:17;;;;;;;11.97;9.50;;;19.50;99.90;;;;;;4420737;28;658764;-63
2022/07/23 04:47:04;;;;;;;14.53;9.23;;;19.40;99.90;;;;;;4437944;28;657527;-64
2022/07/23 04:49:51;;;;;;;13.73;9.23;;;19.60;99.90;;;;;;4418845;28;658052;-65
2022/07/23 04:52:38;;;;;;;19.37;8.63;;;19.80;99.90;;;;;;4436440;28;658127;-63
2022/07/23 04:55:25;;;;;;;13.43;9.10;;;20.00;99.90;;;;;;4417035;28;658114;-63
2022/07/23 04:58:13;;;;;;;19.50;9.70;;;20.20;99.90;;;;;;4421226;28;658580;-63
2022/07/23 05:01:01;;;;;;;13.67;8.93;;;20.20;99.90;;;;;;4415478;28;657885;-64
2022/07/23 05:03:49;;;;;;;13.37;9.33;;;20.20;99.90;;;;;;4421992;28;657910;-63
2022/07/23 05:06:36;;;;;;;15.40;10.23;;;20.40;99.90;;;;;;4412662;28;657886;-64
2022/07/23 05:09:23;;;;;;;17.27;10.87;;;20.60;99.90;;;;;;4435784;28;658647;-64
2022/07/23 05:12:10;;;;;;;16.63;10.73;;;20.90;99.90;;;;;;4417027;28;658587;-64
2022/07/23 05:14:57;;;;;;;16.47;11.67;;;21.10;99.90;;;;;;4423734;28;659141;-63
2022/07/23 05:17:46;;;;;;;19.57;12.60;;;21.40;99.90;;;;;;4434723;28;659034;-63
2022/07/23 05:20:33;;;;;;;21.73;14.03;;;21.70;99.90;;;;;;4399435;28;659006;-63
2022/07/23 05:23:20;;;;;;;24.40;15.60;;;22.00;99.90;;;;;;4413304;28;658248;-64
2022/07/23 05:26:07;;;;;;;23.23;16.10;;;22.10;99.90;;;;;;4420560;28;659464;-63
2022/07/23 05:28:55;;;;;;;27.03;16.07;;;22.20;99.90;;;;;;4435240;28;658372;-64
2022/07/23 05:31:42;;;;;;;31.30;19.40;;;22.30;99.90;;;;;;4441808;28;659404;-63
2022/07/23 05:34:31;;;;;;;32.40;19.47;;;22.40;99.90;;;;;;4434857;28;659405;-63
2022/07/23 05:37:18;;;;;;;23.93;14.50;;;22.60;99.90;;;;;;4414732;28;659774;-64
2022/07/23 05:40:07;;;;;;;26.77;17.57;;;22.70;99.90;;;;;;4430495;28;658631;-64
2022/07/23 05:42:54;;;;;;;29.30;16.33;;;22.70;99.90;;;;;;4443044;28;658781;-63
2022/07/23 05:45:41;;;;;;;30.80;17.97;;;22.80;99.90;;;;;;4418977;28;658645;-64
2022/07/23 05:48:28;;;;;;;32.87;17.43;;;22.90;99.90;;;;;;4436356;28;659615;-64
2022/07/23 05:51:20;;;;;;;29.83;17.47;;;23.10;99.90;;;;;;4420275;28;658545;-64
2022/07/23 05:54:07;;;;;;;27.83;18.00;;;23.20;99.90;;;;;;4395809;28;658739;-63
2022/07/23 05:56:54;;;;;;;26.23;16.87;;;23.40;99.90;;;;;;4437409;28;658912;-64
2022/07/23 05:59:41;;;;;;;30.07;17.00;;;23.60;99.90;;;;;;4413190;28;658555;-64
2022/07/23 06:02:29;;;;;;;27.77;16.73;;;23.70;99.90;;;;;;4436302;28;658782;-64
2022/07/23 06:05:16;;;;;;;28.40;17.20;;;23.90;99.90;;;;;;4418693;28;658755;-63
2022/07/23 06:08:04;;;;;;;24.10;17.17;;;24.10;99.90;;;;;;4440894;28;658872;-63
2022/07/23 06:10:52;;;;;;;28.60;16.70;;;24.20;99.90;;;;;;4409333;28;659881;-63
2022/07/23 06:13:39;;;;;;;24.53;15.90;;;24.40;99.90;;;;;;4420157;28;658184;-65
2022/07/23 06:16:26;;;;;;;23.83;15.50;;;24.60;99.90;;;;;;4419560;28;658952;-63
2022/07/23 06:19:13;;;;;;;26.70;16.27;;;24.80;99.90;;;;;;4432892;28;659235;-63
2022/07/23 06:22:00;;;;;;;22.20;15.43;;;25.00;99.90;;;;;;4424313;28;659491;-64
2022/07/23 06:24:49;;;;;;;23.23;15.67;;;25.20;99.90;;;;;;4444477;28;658385;-63
2022/07/23 06:27:36;;;;;;;27.00;15.50;;;25.50;99.90;;;;;;4421776;28;658784;-63
2022/07/23 06:30:23;;;;;;;25.00;15.27;;;25.70;99.90;;;;;;4442828;28;659527;-64
2022/07/23 06:33:11;;;;;;;19.00;13.93;;;25.90;99.90;;;;;;4412785;28;658613;-65
2022/07/23 06:35:58;;;;;;;20.80;11.57;;;26.10;99.90;;;;;;4439956;28;659051;-63
2022/07/23 06:38:45;;;;;;;16.33;11.47;;;26.40;99.90;;;;;;4417327;28;659376;-64
2022/07/23 06:41:34;;;;;;;14.93;10.32;;;26.60;99.90;;;;;;4444782;28;658785;-64
2022/07/23 06:44:21;;;;;;;14.68;10.40;;;26.80;99.90;;;;;;4405176;28;658327;-63
2022/07/23 06:47:08;;;;;;;15.60;9.55;;;27.00;99.90;;;;;;4437522;28;660015;-63
2022/07/23 06:49:55;;;;;;;10.30;7.90;;;27.30;99.00;;;;;;4420984;28;657624;-65
2022/07/23 06:52:42;;;;;;;17.33;8.27;;;27.50;92.90;;;;;;4444180;28;658539;-63
2022/07/23 06:55:29;;;;;;;13.25;8.82;;;27.70;90.40;;;;;;4443646;28;657953;-64
2022/07/23 06:58:19;;;;;;;17.70;11.00;;;27.90;91.70;;;;;;4423577;28;657537;-64
2022/07/23 07:01:06;;;;;;;15.10;10.50;;;27.80;94.40;;;;;;4414240;28;658493;-64
2022/07/23 07:03:53;;;;;;;14.55;11.73;;;28.00;95.40;;;;;;4439403;28;658929;-64
2022/07/23 07:06:40;;;;;;;16.27;11.20;;;28.10;94.40;;;;;;4405873;28;658475;-65
2022/07/23 07:09:27;;;;;;;18.92;11.63;;;28.20;93.70;;;;;;4448355;28;658350;-65
2022/07/23 07:12:14;;;;;;;16.52;11.57;;;28.30;95.60;;;;;;4439903;28;658658;-63
2022/07/23 07:15:03;;;;;;;20.20;12.10;;;28.40;94.80;;;;;;4412366;28;660176;-63
2022/07/23 07:17:50;;;;;;;16.75;11.32;;;28.50;94.40;;;;;;4415978;28;659942;-64
2022/07/23 07:20:38;;;;;;;22.55;12.50;;;28.50;95.90;;;;;;4447615;28;659082;-63
2022/07/23 07:23:25;;;;;;;16.58;11.13;;;28.70;97.00;;;;;;4435957;28;658609;-64
2022/07/23 07:26:12;;;;;;;17.80;10.80;;;28.20;92.20;;;;;;4444353;28;658752;-64
2022/07/23 07:28:59;;;;;;;19.65;11.30;;;28.20;94.20;;;;;;4438557;28;658649;-64
2022/07/23 07:31:48;;;;;;;25.02;10.93;;;28.20;92.70;;;;;;4423856;28;658543;-64
2022/07/23 07:34:35;;;;;;;18.55;10.18;;;28.40;90.30;;;;;;4428801;28;658825;-65
2022/07/23 07:37:22;;;;;;;13.68;9.50;;;28.70;91.40;;;;;;4433393;28;660194;-63
2022/07/23 07:40:10;;;;;;;15.88;8.98;;;29.00;88.50;;;;;;4429145;28;658248;-63
2022/07/23 07:42:57;;;;;;;18.35;9.68;;;29.30;81.50;;;;;;4410344;28;658223;-64
2022/07/23 07:45:44;;;;;;;15.02;10.23;;;29.50;81.60;;;;;;4443647;28;657692;-64
2022/07/23 07:48:33;;;;;;;15.80;9.52;;;29.40;80.40;;;;;;4419476;28;658820;-64
2022/07/23 07:51:20;;;;;;;12.82;9.50;;;29.80;80.80;;;;;;4428171;28;657730;-65
2022/07/23 07:54:07;;;;;;;13.02;8.93;;;30.10;77.60;;;;;;4444421;28;658220;-64
2022/07/23 07:56:54;;;;;;;20.80;9.75;;;29.60;76.90;;;;;;4442296;28;657674;-64
2022/07/23 07:59:41;;;;;;;18.35;9.43;;;29.70;75.20;;;;;;4424195;28;657760;-64
2022/07/23 08:02:28;;;;;;;15.52;9.52;;;29.90;73.60;;;;;;4441012;28;658304;-65
2022/07/23 08:05:19;;;;;;;14.43;9.02;;;30.10;72.80;;;;;;4406658;28;658408;-64
2022/07/23 08:08:09;;;;;;;19.10;9.32;;;30.30;73.00;;;;;;4418673;28;659119;-64
2022/07/23 08:10:56;;;;;;;11.65;8.85;;;30.50;69.10;;;;;;4420985;28;657969;-64
2022/07/23 08:13:44;;;;;;;16.65;10.05;;;30.80;72.50;;;;;;4439462;28;658557;-63
2022/07/23 08:16:31;;;;;;;11.27;9.35;;;30.40;72.10;;;;;;4420404;28;658619;-63
2022/07/23 08:19:18;;;;;;;19.35;9.55;;;30.70;69.80;;;;;;4440633;28;658181;-63
2022/07/23 08:22:06;;;;;;;13.95;9.55;;;31.00;69.00;;;;;;4411490;28;657802;-65
2022/07/23 08:24:54;;;;;;;16.65;9.70;;;30.90;66.30;;;;;;4436761;28;658317;-64
2022/07/23 08:27:41;;;;;;;14.10;9.77;;;30.60;71.20;;;;;;4417076;28;657466;-63
2022/07/23 08:30:28;;;;;;;13.25;9.90;;;30.60;67.30;;;;;;4439366;28;658465;-63
2022/07/23 08:33:16;;;;;;;21.95;9.60;;;30.50;70.00;;;;;;4421404;28;657599;-64
2022/07/23 08:36:03;;;;;;;15.90;10.18;;;30.80;71.30;;;;;;4444606;28;657962;-63
2022/07/23 08:38:52;;;;;;;12.98;9.77;;;31.20;69.50;;;;;;4401497;28;659913;-63
2022/07/23 08:41:41;;;;;;;13.27;9.52;;;31.30;68.40;;;;;;4422867;28;657970;-64
2022/07/23 08:44:29;;;;;;;23.85;10.02;;;31.70;67.70;;;;;;4423368;28;657483;-64
2022/07/23 08:47:16;;;;;;;20.05;9.70;;;32.10;68.40;;;;;;4426527;28;659647;-64
2022/07/23 08:50:03;;;;;;;13.43;9.82;;;32.20;67.20;;;;;;4450750;28;658674;-63
2022/07/23 08:52:50;;;;;;;12.35;8.93;;;32.40;67.30;;;;;;4413428;28;657776;-65
2022/07/23 08:55:39;;;;;;;13.60;9.45;;;32.40;61.80;;;;;;4447051;28;658976;-63
2022/07/23 08:58:26;;;;;;;13.43;9.57;;;32.30;64.30;;;;;;4412821;28;657907;-64
2022/07/23 09:01:13;;;;;;;17.52;9.57;;;32.30;63.70;;;;;;4447458;28;658605;-64
2022/07/23 09:04:00;;;;;;;14.93;9.70;;;32.60;63.80;;;;;;4428513;28;657407;-64
2022/07/23 09:06:47;;;;;;;12.73;8.68;;;32.70;60.00;;;;;;4447468;28;658553;-65
2022/07/23 09:09:35;;;;;;;14.38;9.65;;;32.30;60.00;;;;;;4444948;28;657274;-64
2022/07/23 09:12:24;;;;;;;13.48;8.23;;;32.60;62.50;;;;;;4447710;28;659079;-63
2022/07/23 09:15:12;;;;;;;11.80;7.72;;;32.50;60.00;;;;;;4428060;28;657835;-63
2022/07/23 09:17:59;;;;;;;12.82;7.65;;;32.80;57.80;;;;;;4427338;28;657582;-63
2022/07/23 09:20:46;;;;;;;16.80;8.80;;;33.30;56.40;;;;;;4428410;28;657598;-63
2022/07/23 09:23:38;;;;;;;14.73;9.10;;;33.10;57.30;;;;;;4451139;28;657548;-63
2022/07/23 09:26:29;;;;;;;12.90;8.23;;;32.30;57.00;;;;;;4387148;28;658163;-64
2022/07/23 09:29:19;;;;;;;17.30;8.77;;;32.20;58.10;;;;;;4427975;28;658580;-63
2022/07/23 09:32:07;;;;;;;10.55;8.05;;;32.60;60.50;;;;;;4409702;28;657596;-63
2022/07/23 09:34:55;;;;;;;9.02;7.15;;;33.10;57.60;;;;;;4442452;28;658338;-64
2022/07/23 09:37:42;;;;;;;11.63;7.10;;;33.60;55.90;;;;;;4442257;28;657981;-63
2022/07/23 09:40:29;;;;;;;11.88;7.28;;;33.60;53.10;;;;;;4447125;28;658714;-63
2022/07/23 09:43:27;;;;;;;12.25;7.07;;;33.20;53.80;;;;;;4429107;28;657531;-63
2022/07/23 09:46:24;;;;;;;11.50;7.07;;;33.30;53.00;;;;;;4424165;28;658291;-64
2022/07/23 09:49:13;;;;;;;9.85;6.82;;;32.90;54.50;;;;;;4427852;28;657648;-64
2022/07/23 09:52:01;;;;;;;9.75;6.65;;;33.60;53.90;;;;;;4429260;28;656527;-64
2022/07/23 09:54:48;;;;;;;11.48;6.35;;;34.00;49.80;;;;;;4436412;28;657765;-63
2022/07/23 09:57:39;;;;;;;8.85;6.65;;;33.80;52.40;;;;;;4436381;28;658043;-64
2022/07/23 10:00:26;;;;;;;8.40;5.78;;;34.40;49.50;;;;;;4445248;28;656510;-64
2022/07/23 10:03:14;;;;;;;7.40;5.88;;;33.00;48.50;;;;;;4466747;28;657397;-64
2022/07/23 10:06:01;;;;;;;9.30;6.47;;;32.40;46.80;;;;;;4443008;28;658133;-63
2022/07/23 10:08:48;;;;;;;8.07;5.72;;;31.90;49.30;;;;;;4465171;28;657515;-63
2022/07/23 10:11:36;;;;;;;8.90;6.13;;;32.30;46.80;;;;;;4445271;28;656891;-63
2022/07/23 10:14:23;;;;;;;9.57;5.53;;;33.10;49.50;;;;;;4467079;28;657879;-64
2022/07/23 10:17:10;;;;;;;8.20;5.55;;;33.40;45.90;;;;;;4444342;28;656342;-65
2022/07/23 10:19:59;;;;;;;9.60;5.65;;;33.50;44.60;;;;;;4469588;28;657402;-63
2022/07/23 10:22:49;;;;;;;5.97;5.30;;;33.40;43.20;;;;;;4445851;28;656813;-63
2022/07/23 10:25:38;;;;;;;8.75;5.80;;;33.30;45.90;;;;;;4442697;28;656826;-64
2022/07/23 10:28:41;;;;;;;15.25;5.93;;;33.70;46.40;;;;;;4443096;28;656469;-64
2022/07/23 10:31:32;;;;;;;9.88;6.03;;;33.20;46.10;;;;;;4441440;28;657922;-63
2022/07/23 10:34:31;;;;;;;10.45;6.25;;;33.00;48.30;;;;;;4437236;28;656508;-65
2022/07/23 10:37:23;;;;;;;10.77;6.43;;;33.30;47.20;;;;;;4406140;28;657753;-63
2022/07/23 10:40:12;;;;;;;7.47;6.17;;;33.50;48.30;;;;;;4399373;28;657675;-64
2022/07/23 10:43:00;;;;;;;10.45;6.63;;;34.20;48.90;;;;;;4447155;28;656745;-64
2022/07/23 10:45:47;;;;;;;16.83;6.87;;;34.30;48.40;;;;;;4407666;28;657636;-64
2022/07/23 10:48:35;;;;;;;12.73;6.45;;;33.60;46.90;;;;;;4441740;28;657516;-64
2022/07/23 10:51:24;;;;;;;6.93;6.07;;;33.70;47.70;;;;;;4446042;28;658651;-63
2022/07/23 10:54:22;;;;;;;9.98;7.32;;;32.50;47.50;;;;;;4428359;28;656795;-64
2022/07/23 10:57:11;;;;;;;10.05;7.00;;;32.20;49.00;;;;;;4428468;28;656836;-64
2022/07/23 11:00:17;;;;;;;8.40;6.35;;;33.00;48.40;;;;;;4428510;28;658893;-63
2022/07/23 11:03:06;;;;;;;12.70;6.70;;;33.20;48.80;;;;;;4424270;28;658187;-63
2022/07/23 11:05:54;;;;;;;9.00;6.30;;;33.70;49.00;;;;;;4403632;28;658310;-63
2022/07/23 11:08:41;;;;;;;11.82;6.65;;;34.00;47.20;;;;;;4411294;28;657219;-64
2022/07/23 11:11:29;;;;;;;11.27;5.97;;;34.70;49.10;;;;;;4447683;28;658456;-63
2022/07/23 11:14:16;;;;;;;9.23;6.93;;;34.30;48.30;;;;;;4423244;28;658095;-64
2022/07/23 11:17:03;;;;;;;10.70;6.45;;;34.80;45.50;;;;;;4429444;28;657369;-63
2022/07/23 11:20:19;;;;;;;8.18;6.50;;;34.60;44.40;;;;;;4423942;28;657805;-64
2022/07/23 11:23:06;;;;;;;14.55;5.72;;;34.30;45.50;;;;;;4404862;28;657657;-64
2022/07/23 11:25:53;;;;;;;6.63;5.53;;;34.20;45.20;;;;;;4445632;28;658517;-63
2022/07/23 11:28:41;;;;;;;7.53;5.65;;;34.30;44.00;;;;;;4427710;28;656926;-65
2022/07/23 11:31:29;;;;;;;9.05;5.78;;;33.80;46.10;;;;;;4430104;28;657007;-63
2022/07/23 11:34:30;;;;;;;7.15;5.75;;;33.70;46.50;;;;;;4428705;28;657028;-64
2022/07/23 11:37:37;;;;;;;8.43;5.70;;;33.50;44.60;;;;;;4404701;28;657179;-63
2022/07/23 11:40:25;;;;;;;5.90;4.93;;;33.90;44.00;;;;;;4427861;28;656485;-64
2022/07/23 11:43:12;;;;;;;8.85;5.43;;;34.30;41.90;;;;;;4431531;28;657573;-63
2022/07/23 11:46:01;;;;;;;11.45;5.75;;;34.90;42.70;;;;;;4440822;28;657000;-64
2022/07/23 11:48:48;;;;;;;6.65;5.43;;;35.80;42.20;;;;;;4426009;28;658547;-63
2022/07/23 11:51:35;;;;;;;11.93;6.13;;;35.80;40.00;;;;;;4433368;28;656309;-65
2022/07/23 11:54:22;;;;;;;7.13;5.70;;;35.70;40.90;;;;;;4453070;28;658913;-63
2022/07/23 11:57:09;;;;;;;7.97;5.63;;;34.30;43.60;;;;;;4432506;28;656613;-63
2022/07/23 11:59:57;;;;;;;8.40;5.88;;;33.80;43.70;;;;;;4414689;28;656737;-63
2022/07/23 12:02:47;;;;;;;9.15;6.68;;;34.10;43.60;;;;;;4450430;28;657014;-63
2022/07/23 12:05:35;;;;;;;14.57;6.82;;;33.70;44.30;;;;;;4426661;28;656924;-63
2022/07/23 12:08:22;;;;;;;6.88;6.15;;;32.90;45.20;;;;;;4412180;28;658354;-63
2022/07/23 12:11:09;;;;;;;8.90;6.35;;;32.90;45.40;;;;;;4429028;28;656388;-63
2022/07/23 12:13:57;;;;;;;8.80;6.50;;;32.90;49.50;;;;;;4426575;28;657794;-63
2022/07/23 12:16:44;;;;;;;9.82;6.40;;;33.10;46.10;;;;;;4444904;28;656835;-63
2022/07/23 12:19:33;;;;;;;8.37;6.40;;;33.40;44.40;;;;;;4420362;28;656488;-63
2022/07/23 12:22:20;;;;;;;11.60;6.50;;;33.80;45.50;;;;;;4414786;28;657538;-65
2022/07/23 12:25:09;;;;;;;10.83;6.77;;;34.20;43.00;;;;;;4435993;28;658371;-63
2022/07/23 12:28:01;;;;;;;8.00;6.32;;;34.00;44.50;;;;;;4428510;28;657776;-63
2022/07/23 12:30:48;;;;;;;8.55;6.72;;;34.40;43.40;;;;;;4426086;28;656670;-63
2022/07/23 12:33:38;;;;;;;9.07;6.45;;;34.80;43.40;;;;;;4414183;28;656588;-64
2022/07/23 12:36:27;;;;;;;10.07;6.72;;;35.30;43.70;;;;;;4437817;28;656503;-64
2022/07/23 12:39:30;;;;;;;8.55;6.43;;;35.60;43.10;;;;;;4417562;28;658937;-63
2022/07/23 12:42:17;;;;;;;13.38;6.70;;;34.50;43.50;;;;;;4404261;28;657368;-63
2022/07/23 12:45:11;;;;;;;10.90;6.97;;;34.30;43.30;;;;;;4447747;28;658381;-63
2022/07/23 12:48:03;;;;;;;9.65;6.70;;;33.90;46.80;;;;;;4411837;28;657998;-63
2022/07/23 12:50:55;;;;;;;8.47;6.73;;;33.80;45.30;;;;;;4407468;28;656371;-64
2022/07/23 12:53:45;;;;;;;12.20;6.65;;;33.30;45.10;;;;;;4430568;28;657325;-63
2022/07/23 12:56:33;;;;;;;6.88;6.20;;;33.20;46.10;;;;;;4425139;28;658387;-63
2022/07/23 12:59:20;;;;;;;9.35;7.30;;;32.60;48.40;;;;;;4441382;28;657025;-64
2022/07/23 13:02:09;;;;;;;9.82;7.18;;;32.70;49.50;;;;;;4452435;28;657801;-63
2022/07/23 13:04:56;;;;;;;13.82;7.13;;;32.60;48.00;;;;;;4429908;28;657996;-63
2022/07/23 13:07:43;;;;;;;10.27;6.80;;;32.00;48.60;;;;;;4447336;28;658801;-63
2022/07/23 13:10:31;;;;;;;8.90;6.90;;;31.60;51.60;;;;;;4419185;28;657520;-63
2022/07/23 13:13:23;;;;;;;10.80;7.18;;;31.50;49.50;;;;;;4448403;28;657627;-63
2022/07/23 13:16:10;;;;;;;8.27;7.13;;;31.30;50.20;;;;;;4403687;28;658279;-64
2022/07/23 13:18:58;;;;;;;11.85;7.38;;;31.30;52.90;;;;;;4439059;28;657993;-63
2022/07/23 13:21:45;;;;;;;13.20;7.40;;;31.10;52.60;;;;;;4440580;28;658725;-65
2022/07/23 13:24:32;;;;;;;10.95;7.55;;;31.00;51.70;;;;;;4451472;28;657792;-64
2022/07/23 13:27:21;;;;;;;12.93;7.13;;;30.90;53.40;;;;;;4447516;28;657384;-63
2022/07/23 13:30:10;;;;;;;7.88;7.07;;;31.00;56.90;;;;;;4424087;28;658757;-63
2022/07/23 13:32:57;;;;;;;12.90;7.03;;;30.90;57.50;;;;;;4418422;28;657418;-63
2022/07/23 13:35:44;;;;;;;9.70;6.45;;;30.80;58.80;;;;;;4445890;28;657428;-63
2022/07/23 13:38:31;;;;;;;9.52;6.68;;;30.80;60.00;;;;;;4418928;28;657397;-63
2022/07/23 13:41:19;;;;;;;16.15;7.57;;;30.30;62.10;;;;;;4430243;28;656769;-63
2022/07/23 13:44:07;;;;;;;12.57;7.47;;;30.20;62.90;;;;;;4427482;28;657937;-63
2022/07/23 13:46:54;;;;;;;8.32;7.32;;;30.20;65.40;;;;;;4442973;28;657735;-63
2022/07/23 13:49:41;;;;;;;10.68;7.22;;;30.10;62.70;;;;;;4392271;28;657326;-63
2022/07/23 13:52:28;;;;;;;14.52;7.50;;;29.80;67.80;;;;;;4413113;28;657410;-63
2022/07/23 13:55:15;;;;;;;10.68;7.20;;;29.30;68.20;;;;;;4393995;28;657452;-64
2022/07/23 13:58:03;;;;;;;11.60;7.57;;;29.00;68.80;;;;;;4412806;28;658459;-63
2022/07/23 14:00:52;;;;;;;9.75;7.68;;;29.10;69.60;;;;;;4399469;28;657588;-64
2022/07/23 14:03:39;;;;;;;11.05;7.30;;;28.50;67.40;;;;;;4418076;28;656366;-64
2022/07/23 14:06:27;;;;;;;10.38;7.38;;;28.10;72.50;;;;;;4390167;28;659173;-63
2022/07/23 14:09:14;;;;;;;9.93;7.50;;;27.90;71.90;;;;;;4401259;28;657952;-63
2022/07/23 14:12:01;;;;;;;10.15;7.35;;;28.00;73.40;;;;;;4384610;28;656075;-64